Terminal Aerodrome Forecast
Issued by NWS Tampa Bay Area, FL

Home | Current Version | Previous Version | Text Only | Print | Product List | Glossary On
Versions: 1 2 3 4 5 6 7 8 9 10 11 12 13 14 15 16 17 18 19 20 21 22 23 24 25 26 27 28 29 30 31 32 33 34 35 36 37 38 39 40 41 42
000
FTUS42 KTBW 210500
TAFTPA
TAF
KTPA 210529Z 2106/2206 04006KT P6SM FEW015 BKN020
     FM211000 03004KT P6SM SCT020
     FM211600 35007KT P6SM FEW025 SCT050 SCT250
     FM220000 32008KT P6SM SCT050
     FM220400 VRB04KT P6SM SCT040=

USA.gov is the U.S. government's official web portal to all federal, state and local government web resources and services.